createdAt,value
2022-09-21T00:00:48.556Z,4.05
2022-09-21T00:03:16.673Z,2.60
2022-09-21T00:05:44.244Z,2.20
2022-09-21T00:08:13.721Z,2.83
2022-09-21T00:10:41.351Z,3.03
2022-09-21T00:13:09.858Z,2.00
2022-09-21T00:15:40.579Z,1.48
2022-09-21T00:18:11.173Z,3.50
2022-09-21T00:20:43.467Z,4.03
2022-09-21T00:23:11.383Z,1.60
2022-09-21T00:25:39.056Z,4.28
2022-09-21T00:28:06.603Z,4.60
2022-09-21T00:30:34.101Z,3.28
2022-09-21T00:33:01.579Z,3.53
2022-09-21T00:35:30.370Z,2.50
2022-09-21T00:38:01.942Z,3.47
2022-09-21T00:40:29.582Z,4.63
2022-09-21T00:43:12.742Z,2.83
2022-09-21T00:45:40.354Z,1.75
2022-09-21T00:48:08.004Z,3.33
2022-09-21T00:50:41.934Z,2.25
2022-09-21T00:53:09.478Z,4.80
2022-09-21T00:55:41.908Z,2.40
2022-09-21T00:58:13.096Z,4.57
2022-09-21T01:00:41.286Z,4.53
2022-09-21T01:03:10.287Z,3.63
2022-09-21T01:05:39.152Z,3.25
2022-09-21T01:08:12.401Z,3.08
2022-09-21T01:10:47.729Z,4.55
2022-09-21T01:13:29.010Z,5.35
2022-09-21T01:16:03.239Z,4.10
2022-09-21T01:18:39.076Z,6.13
2022-09-21T01:21:20.675Z,3.55
2022-09-21T01:24:24.932Z,5.47
2022-09-21T01:27:18.387Z,4.50
2022-09-21T01:29:52.743Z,4.68
2022-09-21T01:32:25.122Z,5.82
2022-09-21T01:34:56.367Z,3.33
2022-09-21T01:37:28.835Z,3.97
2022-09-21T01:40:01.856Z,3.53
2022-09-21T01:42:32.764Z,3.05
2022-09-21T01:45:05.566Z,3.65
2022-09-21T01:50:04.128Z,3.22
2022-09-21T01:52:37.867Z,6.85
2022-09-21T01:55:11.331Z,8.32
2022-09-21T01:57:44.212Z,11.82
2022-09-21T02:00:15.812Z,5.82
2022-09-21T02:02:50.335Z,6.07
2022-09-21T02:05:21.057Z,3.10
2022-09-21T02:07:51.149Z,4.20
2022-09-21T02:10:23.620Z,3.30
2022-09-21T02:12:56.819Z,5.53
2022-09-21T02:15:34.156Z,6.43
2022-09-21T02:18:07.881Z,6.95
2022-09-21T02:20:43.426Z,6.38
2022-09-21T02:23:17.677Z,3.67
2022-09-21T02:25:53.267Z,7.00
2022-09-21T02:28:29.699Z,5.38
2022-09-21T02:31:07.353Z,6.57
2022-09-21T02:33:45.516Z,4.90
2022-09-21T02:36:20.518Z,6.80
2022-09-21T02:38:54.418Z,4.97
2022-09-21T02:41:28.127Z,6.40
2022-09-21T02:44:03.010Z,4.20
2022-09-21T02:46:38.866Z,3.58
2022-09-21T02:49:11.270Z,4.65
2022-09-21T02:51:44.138Z,1.88
2022-09-21T02:54:14.378Z,3.30
2022-09-21T02:56:43.498Z,3.00
2022-09-21T02:59:11.723Z,4.35
2022-09-21T03:01:42.183Z,2.78
2022-09-21T03:04:09.900Z,2.47
2022-09-21T03:06:37.729Z,5.40
2022-09-21T03:09:05.453Z,3.38
2022-09-21T03:11:33.805Z,4.68
2022-09-21T03:14:02.339Z,3.58
2022-09-21T03:16:29.851Z,3.72
2022-09-21T03:18:58.657Z,3.20
2022-09-21T03:21:26.300Z,3.88
2022-09-21T03:23:53.968Z,2.03
2022-09-21T03:26:22.353Z,4.55
2022-09-21T03:28:50.304Z,3.00
2022-09-21T03:31:18.063Z,1.52
2022-09-21T03:33:45.584Z,2.90
2022-09-21T03:36:14.860Z,2.60
2022-09-21T03:38:42.635Z,3.95
2022-09-21T03:41:10.377Z,4.97
2022-09-21T03:43:37.915Z,2.78
2022-09-21T03:46:05.846Z,2.97
2022-09-21T03:48:33.605Z,2.80
2022-09-21T03:51:01.091Z,3.33
2022-09-21T03:53:29.899Z,3.03
2022-09-21T03:55:58.799Z,1.98
2022-09-21T03:58:26.289Z,2.70
2022-09-21T04:00:54.486Z,2.08
2022-09-21T04:03:22.268Z,4.10
2022-09-21T04:05:49.762Z,4.60
2022-09-21T04:08:17.260Z,2.28
2022-09-21T04:10:46.129Z,2.60
2022-09-21T04:13:14.200Z,2.50
2022-09-21T04:15:41.755Z,2.45
2022-09-21T04:18:09.600Z,1.88
2022-09-21T04:20:37.066Z,3.60
2022-09-21T04:23:04.579Z,6.65
2022-09-21T04:25:33.351Z,2.97
2022-09-21T04:28:02.703Z,2.20
2022-09-21T04:30:33.233Z,2.50
2022-09-21T04:33:04.407Z,5.30
2022-09-21T04:35:31.855Z,2.83
2022-09-21T04:37:59.664Z,5.72
2022-09-21T04:40:28.942Z,3.65
2022-09-21T04:43:03.761Z,3.03
2022-09-21T04:45:39.421Z,3.90
2022-09-21T04:48:23.083Z,4.85
2022-09-21T04:50:51.790Z,7.95
2022-09-21T04:53:19.340Z,5.90
2022-09-21T04:55:47.219Z,7.05
2022-09-21T04:58:14.694Z,3.83
2022-09-21T05:00:44.148Z,3.40
2022-09-21T05:03:11.929Z,1.95
2022-09-21T05:05:39.994Z,5.07
2022-09-21T05:08:07.888Z,14.88
2022-09-21T05:10:34.936Z,3.83
2022-09-21T05:13:03.018Z,5.30
2022-09-21T05:15:31.558Z,5.93
2022-09-21T05:18:01.325Z,6.85
2022-09-21T05:20:29.820Z,6.53
2022-09-21T05:23:02.635Z,3.05
2022-09-21T05:28:00.438Z,3.05
2022-09-21T05:30:29.355Z,4.45
2022-09-21T05:33:04.049Z,7.25
2022-09-21T05:35:39.867Z,5.47
2022-09-21T05:38:14.832Z,4.43
2022-09-21T05:40:43.759Z,6.85
2022-09-21T05:43:12.755Z,6.97
2022-09-21T05:45:47.727Z,9.82
2022-09-21T05:48:21.733Z,2.65
2022-09-21T05:51:00.317Z,5.30
2022-09-21T05:53:59.116Z,5.10
2022-09-21T05:56:40.609Z,4.30
2022-09-21T05:59:23.202Z,4.90
2022-09-21T06:02:04.875Z,10.23
2022-09-21T06:04:35.240Z,6.10
2022-09-21T06:07:03.836Z,5.53
2022-09-21T06:09:32.340Z,5.22
2022-09-21T06:12:00.912Z,9.63
2022-09-21T06:14:29.265Z,8.73
2022-09-21T06:16:57.873Z,6.95
2022-09-21T06:19:25.920Z,6.32
2022-09-21T06:21:55.922Z,8.07
2022-09-21T06:24:25.247Z,10.85
2022-09-21T06:26:53.657Z,12.98
2022-09-21T06:29:23.708Z,11.55
2022-09-21T06:31:52.133Z,7.63
2022-09-21T06:34:20.475Z,7.47
2022-09-21T06:36:48.423Z,14.32
2022-09-21T06:39:17.899Z,11.88
2022-09-21T06:41:46.129Z,7.88
2022-09-21T06:44:14.577Z,9.15
2022-09-21T06:46:43.128Z,8.35
2022-09-21T06:49:11.642Z,7.38
2022-09-21T06:51:40.070Z,8.80
2022-09-21T06:54:08.723Z,11.32
2022-09-21T06:56:38.824Z,8.00
2022-09-21T06:59:08.688Z,5.60
2022-09-21T07:01:38.798Z,8.82
2022-09-21T07:04:09.908Z,6.18
2022-09-21T08:27:37.671Z,2.15
2022-09-21T08:34:14.337Z,1.00
2022-09-21T08:37:35.600Z,1.33
2022-09-21T08:46:01.399Z,0.75
2022-09-21T08:48:57.300Z,1.52
2022-09-21T08:51:41.479Z,3.30
2022-09-21T08:54:35.579Z,0.80
2022-09-21T08:57:28.901Z,2.00
2022-09-21T09:00:10.072Z,0.93
2022-09-21T09:03:05.495Z,0.73
2022-09-21T09:06:04.109Z,1.75
2022-09-21T09:12:21.375Z,1.15
2022-09-21T09:15:26.636Z,1.20
2022-09-21T09:21:04.981Z,0.60
2022-09-21T09:23:43.892Z,2.38
2022-09-21T09:26:30.938Z,0.70
2022-09-21T09:29:10.203Z,1.92
2022-09-21T09:35:07.009Z,2.88
2022-09-21T10:08:57.012Z,1.03
2022-09-21T10:20:16.615Z,0.35
2022-09-21T10:23:07.868Z,0.75
2022-09-21T10:26:29.309Z,0.47
2022-09-21T10:30:00.336Z,0.43
2022-09-21T10:33:36.858Z,1.08
2022-09-21T10:37:00.773Z,1.67
2022-09-21T10:42:13.818Z,3.47
2022-09-21T15:47:38.193Z,0.95
2022-09-21T15:50:18.262Z,2.50
2022-09-21T15:53:07.147Z,2.92
2022-09-21T17:10:39.325Z,3.85
2022-09-21T17:13:07.890Z,2.53
2022-09-21T17:15:37.003Z,2.67
2022-09-21T17:18:05.653Z,1.98
2022-09-21T17:20:36.005Z,1.27
2022-09-21T17:23:04.225Z,1.63
2022-09-21T17:25:32.786Z,1.20
2022-09-21T17:28:03.090Z,4.97
2022-09-21T17:30:31.920Z,2.50
2022-09-21T17:32:59.439Z,3.47
2022-09-21T17:35:31.828Z,4.18
2022-09-21T17:37:59.841Z,1.45
2022-09-21T17:40:28.176Z,3.42
2022-09-21T17:43:11.933Z,1.50
2022-09-21T17:45:46.845Z,1.73
2022-09-21T17:48:18.901Z,1.92
2022-09-21T17:50:46.822Z,2.03
2022-09-21T17:53:32.539Z,1.70
2022-09-21T17:56:02.726Z,1.40
2022-09-21T17:58:45.719Z,1.52
2022-09-21T18:01:27.330Z,2.60
2022-09-21T18:03:55.285Z,1.30
2022-09-21T18:06:23.680Z,4.00
2022-09-21T18:08:51.694Z,4.15
2022-09-21T18:11:41.724Z,1.48
2022-09-21T18:14:19.091Z,3.80
2022-09-21T18:16:54.479Z,1.67
2022-09-21T18:19:36.590Z,2.97
2022-09-21T18:22:23.817Z,2.25
2022-09-21T18:24:53.115Z,1.80
2022-09-21T18:27:23.011Z,2.83
2022-09-21T18:29:51.327Z,3.35
2022-09-21T18:32:43.446Z,2.47
2022-09-21T18:35:27.523Z,2.43
2022-09-21T18:38:15.432Z,1.60
2022-09-21T18:40:55.971Z,5.22
2022-09-21T18:43:34.103Z,1.48
2022-09-21T18:46:04.341Z,3.00
2022-09-21T18:48:51.675Z,1.60
2022-09-21T18:51:24.829Z,1.80
2022-09-21T18:53:55.961Z,4.05
2022-09-21T18:56:24.364Z,2.85
2022-09-21T18:58:52.686Z,1.58
2022-09-21T19:01:22.233Z,3.78
2022-09-21T19:06:59.921Z,2.13
2022-09-21T19:09:41.161Z,3.00
2022-09-21T19:12:20.028Z,3.47
2022-09-21T19:14:58.156Z,2.88
2022-09-21T19:17:44.146Z,1.73
2022-09-21T19:20:30.814Z,2.17
2022-09-21T19:23:21.901Z,3.63
2022-09-21T19:25:53.290Z,2.60
2022-09-21T19:28:44.926Z,2.13
2022-09-21T19:31:15.395Z,2.75
2022-09-21T19:33:50.509Z,2.70
2022-09-21T19:36:20.557Z,2.97
2022-09-21T19:38:48.713Z,3.03
2022-09-21T19:41:35.170Z,2.67
2022-09-21T19:44:16.021Z,2.00
2022-09-21T19:46:52.198Z,4.25
2022-09-21T19:49:21.649Z,1.33
2022-09-21T19:51:52.454Z,2.88
2022-09-21T19:54:39.179Z,5.13
2022-09-21T19:57:31.955Z,4.53
2022-09-21T20:00:00.970Z,4.03
2022-09-21T20:02:32.732Z,5.00
2022-09-21T20:05:07.803Z,5.77
2022-09-21T20:07:44.421Z,2.38
2022-09-21T20:10:37.979Z,2.67
2022-09-21T20:13:21.983Z,4.22
2022-09-21T20:15:56.468Z,2.65
2022-09-21T20:18:31.027Z,6.05
2022-09-21T20:20:59.260Z,7.88
2022-09-21T20:23:30.365Z,6.90
2022-09-21T20:26:04.370Z,12.00
2022-09-21T20:28:32.829Z,10.95
2022-09-21T20:31:00.762Z,8.63
2022-09-21T20:33:31.992Z,7.93
2022-09-21T20:36:00.293Z,5.50
2022-09-21T20:38:29.794Z,7.60
2022-09-21T20:40:58.599Z,5.63
2022-09-21T20:43:32.340Z,7.93
2022-09-21T20:46:00.539Z,6.82
2022-09-21T20:48:28.250Z,5.30
2022-09-21T20:50:57.253Z,4.55
2022-09-21T20:53:24.942Z,4.47
2022-09-21T20:55:59.024Z,4.65
2022-09-21T20:58:27.406Z,6.03
2022-09-21T21:00:58.939Z,4.20
2022-09-21T21:03:27.088Z,3.95
2022-09-21T21:05:54.976Z,3.97
2022-09-21T21:08:22.815Z,5.07
2022-09-21T21:10:50.537Z,4.75
2022-09-21T21:13:19.453Z,3.05
2022-09-21T21:15:47.134Z,5.03
2022-09-21T21:18:14.685Z,3.17
2022-09-21T21:20:42.313Z,3.95
2022-09-21T21:23:10.095Z,4.13
2022-09-21T21:25:37.745Z,6.45
2022-09-21T21:28:05.549Z,4.32
2022-09-21T21:30:34.563Z,2.80
2022-09-21T21:33:02.528Z,4.00
2022-09-21T21:35:31.394Z,4.75
2022-09-21T21:37:59.736Z,4.38
2022-09-21T21:40:27.596Z,4.10
2022-09-21T21:42:56.377Z,4.10
2022-09-21T21:45:24.234Z,4.22
2022-09-21T21:47:55.210Z,3.45
2022-09-21T21:50:22.927Z,6.55
2022-09-21T21:52:50.655Z,3.28
2022-09-21T21:55:18.351Z,3.47
2022-09-21T21:57:46.119Z,4.78
2022-09-21T22:00:14.669Z,3.13
2022-09-21T22:02:42.415Z,4.93
2022-09-21T22:05:11.516Z,2.58
2022-09-21T22:07:40.785Z,3.55
2022-09-21T22:10:09.864Z,3.70
2022-09-21T22:12:37.592Z,2.50
2022-09-21T22:15:05.766Z,2.22
2022-09-21T22:17:33.450Z,2.78
2022-09-21T22:20:01.087Z,3.30
2022-09-21T22:22:30.144Z,7.22
2022-09-21T22:24:57.856Z,3.78
2022-09-21T22:27:25.546Z,2.47
2022-09-21T22:29:53.266Z,4.25
2022-09-21T22:32:20.952Z,2.58
2022-09-21T22:34:50.531Z,4.32
2022-09-21T22:37:18.122Z,5.97
2022-09-21T22:39:47.119Z,5.55
2022-09-21T22:42:14.704Z,4.30
2022-09-21T22:44:42.482Z,4.40
2022-09-21T22:47:10.037Z,3.20
2022-09-21T22:49:37.884Z,4.10
2022-09-21T22:52:06.046Z,3.33
2022-09-21T22:54:33.754Z,2.38
2022-09-21T22:57:02.712Z,5.70
2022-09-21T22:59:30.282Z,4.90
2022-09-21T23:01:57.994Z,4.78
2022-09-21T23:04:25.673Z,4.20
2022-09-21T23:06:53.357Z,3.03
2022-09-21T23:09:22.504Z,3.67
2022-09-21T23:11:53.209Z,3.97
2022-09-21T23:14:23.486Z,3.45
2022-09-21T23:16:52.899Z,3.00
2022-09-21T23:19:20.634Z,5.07
2022-09-21T23:21:50.395Z,4.55
2022-09-21T23:24:18.655Z,3.75
2022-09-21T23:26:47.541Z,2.25
2022-09-21T23:29:16.529Z,2.80
2022-09-21T23:31:46.484Z,4.32
2022-09-21T23:34:16.551Z,5.03
2022-09-21T23:36:45.676Z,5.22
2022-09-21T23:39:14.509Z,6.32
2022-09-21T23:41:42.618Z,7.85
2022-09-21T23:44:10.604Z,6.10
2022-09-21T23:46:39.741Z,5.03
2022-09-21T23:49:09.206Z,3.15
2022-09-21T23:51:36.948Z,6.78
2022-09-21T23:54:05.012Z,6.05
2022-09-21T23:56:33.006Z,17.25
2022-09-21T23:59:01.309Z,27.85
